createdAt,value
2023-05-25T00:02:18.182Z,82.14
2023-05-25T00:07:18.036Z,82.45
2023-05-25T00:12:17.957Z,82.04
2023-05-25T00:17:17.918Z,82.49
2023-05-25T00:22:17.846Z,82.39
2023-05-25T00:27:17.798Z,82.49
2023-05-25T00:32:17.708Z,82.79
2023-05-25T00:37:17.622Z,82.90
2023-05-25T00:42:17.613Z,82.59
2023-05-25T00:47:17.532Z,82.22
2023-05-25T00:52:17.524Z,82.63
2023-05-25T00:57:17.456Z,82.73
2023-05-25T01:02:17.693Z,82.97
2023-05-25T01:07:17.420Z,82.87
2023-05-25T01:12:17.289Z,82.91
2023-05-25T01:17:17.393Z,83.28
2023-05-25T01:22:17.220Z,83.80
2023-05-25T01:27:17.190Z,82.91
2023-05-25T01:32:18.315Z,83.42
2023-05-25T01:37:17.061Z,83.22
2023-05-25T01:42:16.949Z,83.77
2023-05-25T01:47:16.917Z,83.15
2023-05-25T01:52:16.858Z,83.36
2023-05-25T01:57:16.803Z,83.77
2023-05-25T02:02:16.717Z,83.81
2023-05-25T02:07:16.692Z,83.61
2023-05-25T02:12:16.625Z,83.91
2023-05-25T02:17:16.588Z,84.01
2023-05-25T02:22:16.522Z,83.64
2023-05-25T02:27:16.577Z,84.16
2023-05-25T02:32:16.502Z,83.75
2023-05-25T02:37:16.447Z,83.78
2023-05-25T02:42:16.409Z,84.47
2023-05-25T02:47:16.310Z,84.09
2023-05-25T02:52:16.271Z,83.78
2023-05-25T02:57:16.197Z,83.99
2023-05-25T03:02:16.188Z,84.30
2023-05-25T03:07:16.151Z,84.20
2023-05-25T03:12:15.974Z,83.68
2023-05-25T03:17:15.994Z,83.62
2023-05-25T03:22:15.864Z,84.03
2023-05-25T03:27:15.874Z,84.03
2023-05-25T03:32:15.881Z,83.92
2023-05-25T03:37:15.721Z,84.23
2023-05-25T03:42:15.762Z,83.72
2023-05-25T03:47:15.709Z,83.62
2023-05-25T03:52:15.553Z,84.07
2023-05-25T03:57:15.601Z,84.03
2023-05-25T04:02:15.500Z,84.13
2023-05-25T04:07:15.492Z,83.92
2023-05-25T04:12:15.445Z,84.34
2023-05-25T04:17:15.349Z,83.89
2023-05-25T04:22:15.258Z,83.78
2023-05-25T04:27:15.223Z,83.85
2023-05-25T04:32:15.187Z,83.64
2023-05-25T04:37:15.035Z,83.81
2023-05-25T04:42:15.013Z,83.09
2023-05-25T04:47:14.946Z,82.64
2023-05-25T04:52:14.924Z,82.70
2023-05-25T04:57:14.885Z,82.05
2023-05-25T05:02:14.915Z,81.71
2023-05-25T05:07:14.834Z,81.63
2023-05-25T05:12:15.710Z,80.60
2023-05-25T05:17:14.730Z,79.79
2023-05-25T05:22:14.618Z,79.20
2023-05-25T05:27:14.564Z,78.75
2023-05-25T05:32:14.561Z,78.72
2023-05-25T05:37:14.543Z,78.95
2023-05-25T05:42:14.390Z,77.75
2023-05-25T05:47:14.362Z,78.12
2023-05-25T05:52:14.247Z,77.27
2023-05-25T05:57:14.186Z,77.03
2023-05-25T06:02:14.183Z,76.21
2023-05-25T06:07:14.104Z,75.60
2023-05-25T06:12:14.060Z,75.87
2023-05-25T06:17:13.999Z,75.67
2023-05-25T06:22:14.052Z,74.62
2023-05-25T06:27:13.954Z,74.01
2023-05-25T06:32:14.039Z,72.45
2023-05-25T06:37:13.767Z,71.73
2023-05-25T06:42:13.793Z,71.60
2023-05-25T06:47:13.728Z,71.36
2023-05-25T06:52:13.627Z,71.13
2023-05-25T06:57:14.090Z,70.42
2023-05-25T07:02:13.497Z,68.36
2023-05-25T07:07:13.545Z,68.23
2023-05-25T07:12:13.358Z,70.05
2023-05-25T07:17:13.338Z,68.56
2023-05-25T07:22:13.286Z,66.52
2023-05-25T07:27:13.251Z,68.43
2023-05-25T07:32:13.185Z,67.69
2023-05-25T07:37:13.172Z,66.28
2023-05-25T07:42:13.039Z,65.50
2023-05-25T07:47:14.057Z,64.94
2023-05-25T07:52:12.972Z,62.96
2023-05-25T07:57:12.968Z,63.39
2023-05-25T08:02:12.955Z,64.00
2023-05-25T08:07:12.900Z,63.79
2023-05-25T08:12:37.948Z,62.88
2023-05-25T08:17:13.895Z,62.02
2023-05-25T08:22:12.688Z,61.85
2023-05-25T08:27:12.607Z,62.09
2023-05-25T08:32:12.511Z,60.15
2023-05-25T08:37:12.462Z,59.27
2023-05-25T08:42:12.386Z,60.31
2023-05-25T08:47:12.433Z,58.91
2023-05-25T08:52:12.292Z,58.74
2023-05-25T08:57:12.393Z,60.17
2023-05-25T09:02:15.761Z,58.34
2023-05-25T09:07:12.296Z,58.61
2023-05-25T09:12:12.186Z,58.11
2023-05-25T09:17:12.090Z,56.41
2023-05-25T09:22:16.276Z,56.41
2023-05-25T09:27:12.958Z,56.54
2023-05-25T09:32:12.023Z,57.22
2023-05-25T09:37:11.969Z,56.62
2023-05-25T09:42:11.785Z,56.67
2023-05-25T09:47:11.711Z,58.21
2023-05-25T09:52:11.644Z,57.85
2023-05-25T09:57:11.649Z,57.17
2023-05-25T10:02:11.587Z,57.50
2023-05-25T10:07:11.475Z,58.97
2023-05-25T10:12:11.483Z,59.04
2023-05-25T10:17:11.507Z,60.24
2023-05-25T10:22:11.483Z,59.93
2023-05-25T10:27:25.667Z,60.87
2023-05-25T10:32:12.378Z,59.60
2023-05-25T10:37:11.135Z,58.80
2023-05-25T10:42:11.183Z,58.74
2023-05-25T10:47:11.206Z,59.00
2023-05-25T10:52:11.086Z,61.30
2023-05-25T10:57:11.092Z,60.33
2023-05-25T11:02:11.011Z,58.84
2023-05-25T11:07:10.925Z,57.93
2023-05-25T11:12:10.788Z,58.07
2023-05-25T11:17:11.089Z,57.20
2023-05-25T11:22:10.689Z,56.62
2023-05-25T11:27:10.653Z,57.07
2023-05-25T11:32:10.591Z,56.29
2023-05-25T11:37:12.222Z,53.14
2023-05-25T11:42:10.471Z,54.15
2023-05-25T11:47:10.488Z,54.98
2023-05-25T11:52:12.460Z,56.62
2023-05-25T11:57:10.350Z,55.48
2023-05-25T12:02:10.331Z,55.33
2023-05-25T12:07:10.318Z,54.75
2023-05-25T12:12:10.213Z,54.83
2023-05-25T12:17:10.294Z,55.26
2023-05-25T12:22:10.081Z,55.79
2023-05-25T12:27:11.105Z,56.21
2023-05-25T12:32:10.097Z,57.52
2023-05-25T12:37:10.042Z,55.26
2023-05-25T12:42:09.926Z,54.33
2023-05-25T12:47:09.810Z,54.43
2023-05-25T12:52:09.762Z,54.55
2023-05-25T12:57:10.790Z,55.18
2023-05-25T13:02:18.624Z,55.28
2023-05-25T13:07:09.594Z,54.63
2023-05-25T13:12:09.536Z,54.35
2023-05-25T13:17:09.475Z,55.46
2023-05-25T13:22:09.470Z,54.80
2023-05-25T13:27:09.461Z,54.78
2023-05-25T13:32:09.497Z,55.58
2023-05-25T13:37:09.285Z,56.26
2023-05-25T13:42:09.215Z,54.30
2023-05-25T13:47:09.181Z,53.39
2023-05-25T13:52:09.090Z,53.22
2023-05-25T13:57:09.007Z,52.44
2023-05-25T14:02:09.324Z,56.35
2023-05-25T14:07:09.211Z,56.03
2023-05-25T14:12:09.097Z,53.85
2023-05-25T14:17:09.057Z,54.17
2023-05-25T14:22:13.944Z,52.72
2023-05-25T14:27:10.048Z,54.35
2023-05-25T14:32:08.975Z,54.72
2023-05-25T14:37:09.805Z,54.00
2023-05-25T14:42:08.641Z,54.38
2023-05-25T14:47:08.662Z,51.42
2023-05-25T14:52:08.616Z,49.72
2023-05-25T14:57:08.517Z,48.94
2023-05-25T15:02:08.459Z,50.42
2023-05-25T15:07:08.817Z,48.49
2023-05-25T15:12:08.259Z,47.33
2023-05-25T15:17:08.245Z,43.82
2023-05-25T15:22:08.221Z,43.88
2023-05-25T15:27:08.109Z,43.96
2023-05-25T15:32:08.361Z,44.50
2023-05-25T15:37:08.089Z,45.44
2023-05-25T15:42:07.976Z,48.19
2023-05-25T15:47:07.967Z,46.03
2023-05-25T15:52:07.890Z,50.26
2023-05-25T15:57:07.802Z,52.09
2023-05-25T16:02:07.958Z,52.72
2023-05-25T16:07:07.787Z,54.22
2023-05-25T16:12:07.684Z,53.85
2023-05-25T16:17:07.612Z,53.72
2023-05-25T16:22:07.677Z,53.55
2023-05-25T16:27:07.569Z,53.14
2023-05-25T16:32:07.574Z,54.08
2023-05-25T16:37:07.415Z,53.97
2023-05-25T16:42:07.304Z,54.53
2023-05-25T16:47:07.324Z,54.91
2023-05-25T16:52:07.282Z,56.14
2023-05-25T16:57:07.170Z,57.10
2023-05-25T17:02:07.112Z,57.48
2023-05-25T17:07:07.016Z,56.97
2023-05-25T17:12:07.311Z,57.48
2023-05-25T17:17:07.480Z,56.95
2023-05-25T17:22:06.911Z,56.27
2023-05-25T17:27:06.845Z,56.84
2023-05-25T17:32:06.780Z,55.94
2023-05-25T17:37:06.851Z,56.97
2023-05-25T17:42:06.772Z,57.15
2023-05-25T17:47:09.184Z,59.92
2023-05-25T17:52:06.746Z,57.73
2023-05-25T17:57:06.624Z,58.11
2023-05-25T18:02:06.799Z,58.41
2023-05-25T18:07:07.582Z,57.83
2023-05-25T18:12:07.534Z,58.14
2023-05-25T18:17:06.394Z,59.04
2023-05-25T18:22:06.294Z,60.08
2023-05-25T18:27:06.402Z,60.71
2023-05-25T18:32:06.263Z,60.94
2023-05-25T18:37:06.235Z,60.41
2023-05-25T18:42:06.201Z,60.71
2023-05-25T18:47:06.013Z,60.94
2023-05-25T18:52:05.911Z,61.55
2023-05-25T18:57:05.872Z,62.18
2023-05-25T19:02:14.694Z,61.85
2023-05-25T19:07:05.702Z,63.62
2023-05-25T19:12:05.656Z,63.96
2023-05-25T19:17:05.709Z,65.61
2023-05-25T19:22:05.640Z,66.04
2023-05-25T19:27:05.541Z,66.98
2023-05-25T19:32:05.678Z,67.93
2023-05-25T19:37:11.553Z,68.13
2023-05-25T19:42:06.344Z,68.36
2023-05-25T19:47:05.392Z,69.71
2023-05-25T19:52:05.312Z,69.92
2023-05-25T19:57:06.233Z,70.56
2023-05-25T20:02:05.201Z,71.20
2023-05-25T20:07:05.168Z,71.73
2023-05-25T20:12:05.044Z,72.48
2023-05-25T20:17:04.939Z,72.78
2023-05-25T20:22:05.023Z,73.33
2023-05-25T20:27:04.907Z,73.83
2023-05-25T20:32:06.061Z,74.79
2023-05-25T20:37:11.723Z,74.99
2023-05-25T20:42:05.004Z,74.92
2023-05-25T20:47:04.703Z,75.02
2023-05-25T20:52:04.639Z,75.77
2023-05-25T20:57:04.598Z,75.81
2023-05-25T21:02:04.730Z,77.03
2023-05-25T21:07:04.486Z,77.47
2023-05-25T21:12:04.359Z,77.78
2023-05-25T21:17:04.373Z,77.98
2023-05-25T21:22:04.292Z,78.32
2023-05-25T21:27:04.174Z,78.53
2023-05-25T21:32:04.126Z,78.87
2023-05-25T21:37:04.119Z,79.17
2023-05-25T21:42:04.033Z,79.38
2023-05-25T21:47:04.217Z,80.74
2023-05-25T21:52:03.934Z,80.74
2023-05-25T21:57:03.879Z,80.54
2023-05-25T22:02:03.962Z,81.45
2023-05-25T22:07:03.883Z,80.74
2023-05-25T22:12:03.690Z,81.04
2023-05-25T22:17:03.838Z,80.43
2023-05-25T22:22:03.744Z,79.93
2023-05-25T22:27:03.547Z,79.82
2023-05-25T22:32:03.515Z,79.82
2023-05-25T22:37:03.423Z,79.62
2023-05-25T22:42:03.404Z,79.86
2023-05-25T22:47:03.317Z,79.72
2023-05-25T22:52:03.259Z,79.66
2023-05-25T22:57:03.236Z,79.75
2023-05-25T23:02:03.213Z,79.04
2023-05-25T23:07:03.114Z,78.53
2023-05-25T23:12:03.074Z,78.43
2023-05-25T23:17:03.056Z,78.33
2023-05-25T23:22:03.083Z,78.43
2023-05-25T23:27:02.897Z,78.43
2023-05-25T23:32:03.006Z,78.16
2023-05-25T23:37:04.979Z,78.57
2023-05-25T23:42:02.746Z,78.16
2023-05-25T23:47:02.722Z,78.16
2023-05-25T23:52:02.640Z,78.30
2023-05-25T23:57:02.655Z,79.52
